createdAt,value
2019-03-11T00:00:16.598Z,19.15
2019-03-11T00:02:45.064Z,19.16
2019-03-11T00:05:13.500Z,19.16
2019-03-11T00:07:41.922Z,19.15
2019-03-11T00:10:10.591Z,19.15
2019-03-11T00:12:39.034Z,19.13
2019-03-11T00:15:09.078Z,19.11
2019-03-11T00:17:37.532Z,19.12
2019-03-11T00:20:08.084Z,19.11
2019-03-11T00:22:36.511Z,19.11
2019-03-11T00:25:05.563Z,19.09
2019-03-11T00:27:33.994Z,19.08
2019-03-11T00:30:02.404Z,19.08
2019-03-11T00:32:30.804Z,19.05
2019-03-11T00:34:59.318Z,19.04
2019-03-11T00:37:27.802Z,19.04
2019-03-11T00:39:56.226Z,19.04
2019-03-11T00:42:24.648Z,19.02
2019-03-11T00:44:53.069Z,19.03
2019-03-11T00:47:21.511Z,19.03
2019-03-11T00:49:49.962Z,19.03
2019-03-11T00:52:18.368Z,19.02
2019-03-11T00:54:46.794Z,19.00
2019-03-11T00:57:15.220Z,19.01
2019-03-11T00:59:43.621Z,19.02
2019-03-11T01:02:12.060Z,19.01
2019-03-11T01:04:40.477Z,18.99
2019-03-11T01:07:08.912Z,18.98
2019-03-11T01:09:37.314Z,18.97
2019-03-11T01:12:05.819Z,18.95
2019-03-11T01:14:35.943Z,18.96
2019-03-11T01:17:04.501Z,18.96
2019-03-11T01:19:32.914Z,18.96
2019-03-11T01:22:01.363Z,18.95
2019-03-11T01:24:29.779Z,18.96
2019-03-11T01:26:58.211Z,18.95
2019-03-11T01:29:26.639Z,18.94
2019-03-11T01:31:55.059Z,18.95
2019-03-11T01:34:23.497Z,18.95
2019-03-11T01:36:51.895Z,18.95
2019-03-11T01:39:20.306Z,18.94
2019-03-11T01:41:48.743Z,18.93
2019-03-11T01:44:17.174Z,18.95
2019-03-11T01:46:45.605Z,18.95
2019-03-11T01:49:14.043Z,18.95
2019-03-11T01:51:42.453Z,18.95
2019-03-11T01:54:10.875Z,18.93
2019-03-11T01:56:39.311Z,18.94
2019-03-11T01:59:07.757Z,18.92
2019-03-11T02:01:36.231Z,18.91
2019-03-11T02:04:04.653Z,18.90
2019-03-11T02:06:33.091Z,18.92
2019-03-11T02:09:01.492Z,18.93
2019-03-11T02:11:30.073Z,18.91
2019-03-11T02:13:58.523Z,18.92
2019-03-11T02:16:26.949Z,18.90
2019-03-11T02:18:55.387Z,18.88
2019-03-11T02:21:23.827Z,18.88
2019-03-11T02:23:52.271Z,18.88
2019-03-11T02:26:20.680Z,18.89
2019-03-11T02:28:49.109Z,18.88
2019-03-11T02:31:17.527Z,18.88
2019-03-11T02:33:45.961Z,18.87
2019-03-11T02:36:14.385Z,18.86
2019-03-11T02:38:42.822Z,18.86
2019-03-11T02:41:11.223Z,18.85
2019-03-11T02:43:39.645Z,18.86
2019-03-11T02:46:08.066Z,18.84
2019-03-11T02:48:36.487Z,18.83
2019-03-11T02:51:04.979Z,18.80
2019-03-11T02:53:33.398Z,18.80
2019-03-11T02:56:01.829Z,18.80
2019-03-11T02:58:30.246Z,18.81
2019-03-11T03:01:00.315Z,18.81
2019-03-11T03:03:36.404Z,18.82
2019-03-11T03:06:06.657Z,18.81
2019-03-11T03:08:35.058Z,18.82
2019-03-11T03:11:03.496Z,18.82
2019-03-11T03:13:31.927Z,18.81
2019-03-11T03:16:00.362Z,18.80
2019-03-11T03:18:28.799Z,18.80
2019-03-11T03:20:57.205Z,18.79
2019-03-11T03:23:25.638Z,18.80
2019-03-11T03:25:54.127Z,18.79
2019-03-11T03:28:22.554Z,18.79
2019-03-11T03:30:50.995Z,18.79
2019-03-11T03:33:19.405Z,18.78
2019-03-11T03:35:47.803Z,18.78
2019-03-11T03:38:29.535Z,18.77
2019-03-11T03:40:46.405Z,18.77
2019-03-11T03:43:14.826Z,18.77
2019-03-11T03:45:43.401Z,18.77
2019-03-11T03:48:12.080Z,18.78
2019-03-11T03:50:41.157Z,18.77
2019-03-11T03:53:09.895Z,18.77
2019-03-11T03:55:38.340Z,18.77
2019-03-11T03:58:07.545Z,18.77
2019-03-11T04:00:35.991Z,18.75
2019-03-11T04:03:04.577Z,18.77
2019-03-11T04:05:33.004Z,18.76
2019-03-11T04:08:01.448Z,18.76
2019-03-11T04:10:32.486Z,18.77
2019-03-11T04:13:00.024Z,18.77
2019-03-11T04:15:28.594Z,18.78
2019-03-11T04:17:57.024Z,18.79
2019-03-11T04:20:26.875Z,18.78
2019-03-11T04:22:55.446Z,18.80
2019-03-11T04:25:24.228Z,18.80
2019-03-11T04:27:52.885Z,18.81
2019-03-11T04:30:25.262Z,18.79
2019-03-11T04:32:53.702Z,18.81
2019-03-11T04:35:22.291Z,18.81
2019-03-11T04:37:50.724Z,18.81
2019-03-11T04:40:19.225Z,18.81
2019-03-11T04:42:47.626Z,18.81
2019-03-11T04:45:17.306Z,18.80
2019-03-11T04:47:45.956Z,18.80
2019-03-11T04:50:17.439Z,18.82
2019-03-11T04:52:46.004Z,18.82
2019-03-11T04:55:15.452Z,18.83
2019-03-11T04:57:52.644Z,18.84
2019-03-11T05:00:26.464Z,18.83
2019-03-11T05:02:54.949Z,18.82
2019-03-11T05:05:23.446Z,18.83
2019-03-11T05:07:51.884Z,18.84
2019-03-11T05:10:20.319Z,18.81
2019-03-11T05:12:48.823Z,18.80
2019-03-11T05:15:17.263Z,18.79
2019-03-11T05:17:48.335Z,18.79
2019-03-11T05:20:16.730Z,18.79
2019-03-11T05:22:45.237Z,18.79
2019-03-11T05:25:14.672Z,18.78
2019-03-11T05:27:43.298Z,18.77
2019-03-11T05:30:14.765Z,18.78
2019-03-11T05:32:43.168Z,18.76
2019-03-11T05:35:11.670Z,18.75
2019-03-11T05:37:40.131Z,18.77
2019-03-11T05:40:16.100Z,18.76
2019-03-11T05:42:44.671Z,18.75
2019-03-11T05:45:15.330Z,18.75
2019-03-11T05:47:43.848Z,18.74
2019-03-11T05:50:14.440Z,18.73
2019-03-11T05:52:43.032Z,18.73
2019-03-11T05:55:12.674Z,18.72
2019-03-11T05:57:41.338Z,18.71
2019-03-11T06:00:13.266Z,18.71
2019-03-11T06:02:41.660Z,18.72
2019-03-11T06:05:10.160Z,18.71
2019-03-11T06:07:38.586Z,18.70
2019-03-11T06:10:09.867Z,18.71
2019-03-11T06:12:38.270Z,18.70
2019-03-11T06:15:09.238Z,18.70
2019-03-11T06:17:37.834Z,18.70
2019-03-11T06:20:16.908Z,18.69
2019-03-11T06:22:45.310Z,18.70
2019-03-11T06:25:13.739Z,18.71
2019-03-11T06:27:42.158Z,18.71
2019-03-11T06:30:11.819Z,18.70
2019-03-11T06:32:40.259Z,18.71
2019-03-11T06:35:08.886Z,18.70
2019-03-11T06:37:37.285Z,18.71
2019-03-11T06:40:08.302Z,18.71
2019-03-11T06:42:36.730Z,18.73
2019-03-11T06:45:07.435Z,18.71
2019-03-11T06:47:35.885Z,18.73
2019-03-11T06:50:06.602Z,18.72
2019-03-11T06:52:34.976Z,18.71
2019-03-11T06:55:04.488Z,18.72
2019-03-11T06:57:32.916Z,18.72
2019-03-11T07:00:01.418Z,18.71
2019-03-11T07:02:29.823Z,18.72
2019-03-11T07:04:58.236Z,18.73
2019-03-11T07:07:26.714Z,18.73
2019-03-11T07:09:55.154Z,18.74
2019-03-11T07:12:23.606Z,18.75
2019-03-11T07:14:52.044Z,18.77
2019-03-11T07:17:20.447Z,18.77
2019-03-11T07:19:48.877Z,18.80
2019-03-11T07:22:17.318Z,18.82
2019-03-11T07:24:45.722Z,18.85
2019-03-11T07:27:14.179Z,18.85
2019-03-11T07:29:42.611Z,18.88
2019-03-11T07:32:11.032Z,18.93
2019-03-11T07:34:39.458Z,18.97
2019-03-11T07:37:07.929Z,19.03
2019-03-11T07:39:36.404Z,19.07
2019-03-11T07:42:05.677Z,19.12
2019-03-11T07:44:34.106Z,19.23
2019-03-11T07:47:02.544Z,19.35
2019-03-11T07:49:31.023Z,19.49
2019-03-11T07:51:59.449Z,19.62
2019-03-11T07:54:35.436Z,19.74
2019-03-11T07:56:58.047Z,19.83
2019-03-11T07:59:26.459Z,19.90
2019-03-11T08:01:54.897Z,20.01
2019-03-11T08:04:23.345Z,20.10
2019-03-11T08:06:51.754Z,20.17
2019-03-11T08:09:20.181Z,20.24
2019-03-11T08:11:48.603Z,20.30
2019-03-11T08:14:17.043Z,20.36
2019-03-11T08:16:45.455Z,20.39
2019-03-11T08:19:13.895Z,20.45
2019-03-11T08:21:42.341Z,20.49
2019-03-11T08:24:10.749Z,20.54
2019-03-11T08:26:39.188Z,20.58
2019-03-11T08:29:07.629Z,20.62
2019-03-11T08:31:36.059Z,20.65
2019-03-11T08:34:04.557Z,20.66
2019-03-11T08:36:32.988Z,20.65
2019-03-11T08:39:01.405Z,20.66
2019-03-11T08:41:29.843Z,20.64
2019-03-11T08:43:58.271Z,20.62
2019-03-11T08:46:26.692Z,20.65
2019-03-11T08:48:55.132Z,20.65
2019-03-11T08:51:23.635Z,20.66
2019-03-11T08:53:52.073Z,20.70
2019-03-11T08:56:20.548Z,20.77
2019-03-11T08:58:48.961Z,20.85
2019-03-11T09:01:17.469Z,20.93
2019-03-11T09:03:47.920Z,21.01
2019-03-11T09:06:16.157Z,21.05
2019-03-11T09:08:44.571Z,21.06
2019-03-11T09:11:12.977Z,21.06
2019-03-11T09:13:41.407Z,21.07
2019-03-11T09:16:09.844Z,21.14
2019-03-11T09:18:38.247Z,21.24
2019-03-11T09:21:06.668Z,21.22
2019-03-11T09:23:35.104Z,21.40
2019-03-11T09:26:03.604Z,21.46
2019-03-11T09:28:32.186Z,21.50
2019-03-11T09:31:00.717Z,21.60
2019-03-11T09:33:29.157Z,21.67
2019-03-11T09:35:57.594Z,21.71
2019-03-11T09:38:26.018Z,21.72
2019-03-11T09:40:54.441Z,21.71
2019-03-11T09:43:22.885Z,21.69
2019-03-11T09:45:51.286Z,21.69
2019-03-11T09:48:19.695Z,21.71
2019-03-11T09:50:48.139Z,21.71
2019-03-11T09:53:16.551Z,21.72
2019-03-11T09:55:45.007Z,21.74
2019-03-11T09:58:13.414Z,21.76
2019-03-11T10:00:41.855Z,21.78
2019-03-11T10:03:10.307Z,21.85
2019-03-11T10:05:38.742Z,22.02
2019-03-11T10:08:07.183Z,22.14
2019-03-11T10:10:35.605Z,22.22
2019-03-11T10:13:04.085Z,22.25
2019-03-11T10:15:32.518Z,22.25
2019-03-11T10:18:00.931Z,22.23
2019-03-11T10:20:29.360Z,22.23
2019-03-11T10:22:57.781Z,22.22
2019-03-11T10:25:26.215Z,22.19
2019-03-11T10:27:54.647Z,22.18
2019-03-11T10:30:24.200Z,22.21
2019-03-11T10:32:52.646Z,22.20
2019-03-11T10:35:36.855Z,22.16
2019-03-11T10:37:51.693Z,22.12
2019-03-11T10:40:21.638Z,22.07
2019-03-11T10:42:50.074Z,22.02
2019-03-11T10:45:29.698Z,22.00
2019-03-11T10:47:48.979Z,21.96
2019-03-11T10:50:18.629Z,21.97
2019-03-11T10:52:47.140Z,21.97
2019-03-11T10:55:17.312Z,21.96
2019-03-11T10:57:45.902Z,21.98
2019-03-11T11:00:20.505Z,21.94
2019-03-11T11:02:49.080Z,21.93
2019-03-11T11:05:17.591Z,21.94
2019-03-11T11:07:46.115Z,21.96
2019-03-11T11:10:16.410Z,22.08
2019-03-11T11:12:44.857Z,22.32
2019-03-11T11:15:18.673Z,22.58
2019-03-11T11:17:47.192Z,22.66
2019-03-11T11:20:17.614Z,22.64
2019-03-11T11:22:46.104Z,22.58
2019-03-11T11:25:20.136Z,22.56
2019-03-11T11:27:48.544Z,22.53
2019-03-11T11:30:25.623Z,22.58
2019-03-11T11:32:54.384Z,22.61
2019-03-11T11:35:22.798Z,22.63
2019-03-11T11:37:51.778Z,22.57
2019-03-11T11:40:27.122Z,22.49
2019-03-11T11:42:55.816Z,22.39
2019-03-11T11:45:26.448Z,22.28
2019-03-11T11:47:55.098Z,22.18
2019-03-11T11:50:24.465Z,22.06
2019-03-11T11:52:52.951Z,21.98
2019-03-11T11:55:22.513Z,21.89
2019-03-11T11:57:51.126Z,21.80
2019-03-11T12:00:22.965Z,21.72
2019-03-11T12:02:51.449Z,21.63
2019-03-11T12:05:20.042Z,21.56
2019-03-11T12:07:48.475Z,21.48
2019-03-11T12:10:22.118Z,21.41
2019-03-11T12:12:50.635Z,21.36
2019-03-11T12:15:19.062Z,21.32
2019-03-11T12:17:47.571Z,21.36
2019-03-11T12:20:19.118Z,21.49
2019-03-11T12:22:47.622Z,21.61
2019-03-11T12:25:16.684Z,21.63
2019-03-11T12:27:53.759Z,21.65
2019-03-11T12:30:18.612Z,21.63
2019-03-11T12:32:47.482Z,21.67
2019-03-11T12:35:16.033Z,21.67
2019-03-11T12:37:44.486Z,21.66
2019-03-11T12:40:17.663Z,21.68
2019-03-11T12:42:46.161Z,21.72
2019-03-11T12:45:22.708Z,21.72
2019-03-11T12:47:51.250Z,21.67
2019-03-11T12:50:30.235Z,21.62
2019-03-11T12:52:58.815Z,21.57
2019-03-11T12:55:27.241Z,21.53
2019-03-11T12:57:55.673Z,21.49
2019-03-11T13:00:25.159Z,21.56
2019-03-11T13:02:53.577Z,21.56
2019-03-11T13:05:22.003Z,21.50
2019-03-11T13:07:50.485Z,21.45
2019-03-11T13:10:20.647Z,21.41
2019-03-11T13:12:49.597Z,21.44
2019-03-11T13:15:18.575Z,21.62
2019-03-11T13:17:47.024Z,21.95
2019-03-11T13:20:21.144Z,22.07
2019-03-11T13:22:51.544Z,22.04
2019-03-11T13:25:20.278Z,21.93
2019-03-11T13:27:48.726Z,21.82
2019-03-11T13:30:17.671Z,21.73
2019-03-11T13:32:46.118Z,21.67
2019-03-11T13:35:14.878Z,21.60
2019-03-11T13:37:43.331Z,21.53
2019-03-11T13:40:16.655Z,21.51
2019-03-11T13:42:45.095Z,21.48
2019-03-11T13:45:19.937Z,21.52
2019-03-11T13:47:48.414Z,21.52
2019-03-11T13:50:20.161Z,21.47
2019-03-11T13:52:48.575Z,21.42
2019-03-11T13:55:17.625Z,21.36
2019-03-11T13:57:46.609Z,21.31
2019-03-11T14:00:21.813Z,21.25
2019-03-11T14:02:50.249Z,21.18
2019-03-11T14:05:18.763Z,21.12
2019-03-11T14:07:47.323Z,21.06
2019-03-11T14:10:16.392Z,21.02
2019-03-11T14:12:45.063Z,20.99
2019-03-11T14:15:21.417Z,20.96
2019-03-11T14:17:49.846Z,20.90
2019-03-11T14:20:18.517Z,20.85
2019-03-11T14:22:46.932Z,20.83
2019-03-11T14:25:15.903Z,20.83
2019-03-11T14:27:44.494Z,20.84
2019-03-11T14:30:20.761Z,20.85
2019-03-11T14:32:49.194Z,20.84
2019-03-11T14:35:17.607Z,20.84
2019-03-11T14:37:46.106Z,20.83
2019-03-11T14:40:18.545Z,20.83
2019-03-11T14:42:46.999Z,20.81
2019-03-11T14:45:17.029Z,20.80
2019-03-11T14:47:45.471Z,20.79
2019-03-11T14:50:15.409Z,20.78
2019-03-11T14:52:43.904Z,20.78
2019-03-11T14:55:13.355Z,20.77
2019-03-11T14:57:41.928Z,20.78
2019-03-11T15:00:21.262Z,20.77
2019-03-11T15:02:50.358Z,20.76
2019-03-11T15:05:19.696Z,20.75
2019-03-11T15:07:48.341Z,20.73
2019-03-11T15:10:18.926Z,20.74
2019-03-11T15:12:47.865Z,20.72
2019-03-11T15:15:24.169Z,20.71
2019-03-11T15:17:52.578Z,20.68
2019-03-11T15:20:21.011Z,20.67
2019-03-11T15:22:49.529Z,20.63
2019-03-11T15:25:20.033Z,20.63
2019-03-11T15:27:48.709Z,20.67
2019-03-11T15:30:21.505Z,20.71
2019-03-11T15:32:50.014Z,20.71
2019-03-11T15:35:18.515Z,20.69
2019-03-11T15:37:46.947Z,20.68
2019-03-11T15:40:16.487Z,20.67
2019-03-11T15:42:44.925Z,20.68
2019-03-11T15:45:15.065Z,20.66
2019-03-11T15:47:43.477Z,20.66
2019-03-11T15:50:21.133Z,20.64
2019-03-11T15:52:49.564Z,20.63
2019-03-11T15:55:18.339Z,20.59
2019-03-11T15:57:46.757Z,20.59
2019-03-11T16:00:18.032Z,20.60
2019-03-11T16:02:46.653Z,20.61
2019-03-11T16:05:16.720Z,20.62
2019-03-11T16:07:45.185Z,20.61
2019-03-11T16:10:17.113Z,20.61
2019-03-11T16:12:45.176Z,20.59
2019-03-11T16:15:14.547Z,20.54
2019-03-11T16:17:43.210Z,20.52
2019-03-11T16:20:14.612Z,20.52
2019-03-11T16:22:43.021Z,20.50
2019-03-11T16:25:12.097Z,20.47
2019-03-11T16:27:40.506Z,20.44
2019-03-11T16:30:11.978Z,20.40
2019-03-11T16:32:57.216Z,20.35
2019-03-11T16:35:10.732Z,20.32
2019-03-11T16:37:39.155Z,20.28
2019-03-11T16:40:10.601Z,20.23
2019-03-11T16:42:39.032Z,20.21
2019-03-11T16:45:10.928Z,20.16
2019-03-11T16:47:39.658Z,20.13
2019-03-11T16:50:11.222Z,20.09
2019-03-11T16:52:39.660Z,20.07
2019-03-11T16:55:11.294Z,20.03
2019-03-11T16:57:39.712Z,20.02
2019-03-11T17:00:16.715Z,19.98
2019-03-11T17:02:45.436Z,19.94
2019-03-11T17:05:14.356Z,19.91
2019-03-11T17:07:42.779Z,19.88
2019-03-11T17:10:16.860Z,19.86
2019-03-11T17:12:45.286Z,19.84
2019-03-11T17:15:14.061Z,19.82
2019-03-11T17:17:42.530Z,19.79
2019-03-11T17:20:16.220Z,19.76
2019-03-11T17:22:44.805Z,19.73
2019-03-11T17:25:14.186Z,19.71
2019-03-11T17:27:42.950Z,19.70
2019-03-11T17:30:18.877Z,19.67
2019-03-11T17:32:47.395Z,19.65
2019-03-11T17:35:16.582Z,19.63
2019-03-11T17:37:45.431Z,19.61
2019-03-11T17:40:16.588Z,19.58
2019-03-11T17:42:45.309Z,19.56
2019-03-11T17:45:14.932Z,19.54
2019-03-11T17:47:43.722Z,19.53
2019-03-11T17:50:15.380Z,19.52
2019-03-11T17:52:44.078Z,19.51
2019-03-11T17:55:13.230Z,19.51
2019-03-11T17:57:41.928Z,19.49
2019-03-11T18:00:25.489Z,19.47
2019-03-11T18:02:53.580Z,19.46
2019-03-11T18:05:22.521Z,19.46
2019-03-11T18:07:50.960Z,19.44
2019-03-11T18:10:19.536Z,19.43
2019-03-11T18:12:47.970Z,19.42
2019-03-11T18:15:16.625Z,19.40
2019-03-11T18:17:45.069Z,19.39
2019-03-11T18:20:17.935Z,19.38
2019-03-11T18:22:46.440Z,19.36
2019-03-11T18:25:19.643Z,19.35
2019-03-11T18:27:48.249Z,19.32
2019-03-11T18:30:21.145Z,19.32
2019-03-11T18:32:49.857Z,19.30
2019-03-11T18:35:18.822Z,19.30
2019-03-11T18:37:47.232Z,19.28
2019-03-11T18:40:17.335Z,19.28
2019-03-11T18:42:45.904Z,19.26
2019-03-11T18:45:14.864Z,19.25
2019-03-11T18:47:43.540Z,19.25
2019-03-11T18:50:20.532Z,19.24
2019-03-11T18:52:48.955Z,19.23
2019-03-11T18:55:17.386Z,19.23
2019-03-11T18:57:46.005Z,19.21
2019-03-11T19:00:20.508Z,19.20
2019-03-11T19:02:49.046Z,19.19
2019-03-11T19:05:19.107Z,19.18
2019-03-11T19:07:47.523Z,19.17
2019-03-11T19:10:16.549Z,19.16
2019-03-11T19:12:45.162Z,19.15
2019-03-11T19:15:16.628Z,19.16
2019-03-11T19:17:45.370Z,19.15
2019-03-11T19:20:16.318Z,19.14
2019-03-11T19:22:44.786Z,19.14
2019-03-11T19:25:13.339Z,19.14
2019-03-11T19:27:41.739Z,19.10
2019-03-11T19:30:15.754Z,19.09
2019-03-11T19:32:44.174Z,19.09
2019-03-11T19:35:12.815Z,19.09
2019-03-11T19:37:41.261Z,19.09
2019-03-11T19:40:17.365Z,19.10
2019-03-11T19:42:46.102Z,19.08
2019-03-11T19:45:16.196Z,19.07
2019-03-11T19:47:44.716Z,19.07
2019-03-11T19:50:17.742Z,19.08
2019-03-11T19:52:57.664Z,19.07
2019-03-11T19:55:16.935Z,19.07
2019-03-11T19:57:45.549Z,19.05
2019-03-11T20:00:21.940Z,19.03
2019-03-11T20:02:50.473Z,19.02
2019-03-11T20:05:26.919Z,19.01
2019-03-11T20:07:55.411Z,19.01
2019-03-11T20:10:24.199Z,19.02
2019-03-11T20:12:52.703Z,19.01
2019-03-11T20:15:21.275Z,19.01
2019-03-11T20:17:49.877Z,18.99
2019-03-11T20:20:19.370Z,19.01
2019-03-11T20:22:49.489Z,19.01
2019-03-11T20:25:20.652Z,18.99
2019-03-11T20:27:49.058Z,18.98
2019-03-11T20:30:20.461Z,18.99
2019-03-11T20:32:48.891Z,18.99
2019-03-11T20:35:17.985Z,18.99
2019-03-11T20:37:46.683Z,19.00
2019-03-11T20:40:15.183Z,19.00
2019-03-11T20:42:43.736Z,19.01
2019-03-11T20:45:16.317Z,18.99
2019-03-11T20:47:44.727Z,19.00
2019-03-11T20:50:17.482Z,18.99
2019-03-11T20:52:46.011Z,19.00
2019-03-11T20:55:19.236Z,19.00
2019-03-11T20:57:47.930Z,19.00
2019-03-11T21:00:20.980Z,19.00
2019-03-11T21:02:49.841Z,19.00
2019-03-11T21:05:24.437Z,19.01
2019-03-11T21:07:52.882Z,19.00
2019-03-11T21:10:21.433Z,18.99
2019-03-11T21:12:49.875Z,18.98
2019-03-11T21:15:18.717Z,18.98
2019-03-11T21:17:47.167Z,18.96
2019-03-11T21:20:17.316Z,18.96
2019-03-11T21:22:45.732Z,18.97
2019-03-11T21:25:18.791Z,18.97
2019-03-11T21:27:47.206Z,18.97
2019-03-11T21:30:18.317Z,18.96
2019-03-11T21:32:47.042Z,18.96
2019-03-11T21:35:15.937Z,18.96
2019-03-11T21:37:44.828Z,18.96
2019-03-11T21:40:18.055Z,18.96
2019-03-11T21:42:46.932Z,18.96
2019-03-11T21:45:16.536Z,18.95
2019-03-11T21:47:45.105Z,18.96
2019-03-11T21:50:24.875Z,18.95
2019-03-11T21:52:53.378Z,18.94
2019-03-11T21:55:22.276Z,18.93
2019-03-11T21:57:50.788Z,18.94
2019-03-11T22:00:34.307Z,18.94
2019-03-11T22:02:56.056Z,18.93
2019-03-11T22:05:24.638Z,18.93
2019-03-11T22:07:53.209Z,18.94
2019-03-11T22:10:21.916Z,18.93
2019-03-11T22:12:50.342Z,18.91
2019-03-11T22:15:23.065Z,18.91
2019-03-11T22:17:51.479Z,18.91
2019-03-11T22:20:19.898Z,18.90
2019-03-11T22:22:48.338Z,18.89
2019-03-11T22:25:17.990Z,18.89
2019-03-11T22:27:46.422Z,18.89
2019-03-11T22:30:19.935Z,18.89
2019-03-11T22:32:48.459Z,18.90
2019-03-11T22:35:17.053Z,18.90
2019-03-11T22:37:45.469Z,18.90
2019-03-11T22:40:15.124Z,18.89
2019-03-11T22:42:43.574Z,18.89
2019-03-11T22:45:16.819Z,18.90
2019-03-11T22:47:44.787Z,18.91
2019-03-11T22:50:13.533Z,18.89
2019-03-11T22:52:41.980Z,18.88
2019-03-11T22:55:11.226Z,18.87
2019-03-11T22:57:39.724Z,18.86
2019-03-11T23:00:32.484Z,18.86
2019-03-11T23:03:00.960Z,18.84
2019-03-11T23:05:29.447Z,18.85
2019-03-11T23:07:57.940Z,18.84
2019-03-11T23:10:26.367Z,18.85
2019-03-11T23:12:54.892Z,18.84
2019-03-11T23:15:23.324Z,18.84
2019-03-11T23:17:51.745Z,18.85
2019-03-11T23:20:20.176Z,18.87
2019-03-11T23:22:48.584Z,18.87
2019-03-11T23:25:16.997Z,18.87
2019-03-11T23:27:45.454Z,18.88
2019-03-11T23:30:15.330Z,18.86
2019-03-11T23:32:43.819Z,18.87
2019-03-11T23:35:12.388Z,18.87
2019-03-11T23:37:40.780Z,18.88
2019-03-11T23:40:10.187Z,18.86
2019-03-11T23:42:38.752Z,18.87
2019-03-11T23:45:09.540Z,18.86
2019-03-11T23:47:37.942Z,18.84
2019-03-11T23:50:09.690Z,18.83
2019-03-11T23:52:38.106Z,18.84
2019-03-11T23:55:08.751Z,18.83
2019-03-11T23:57:37.200Z,18.81
